Airfield :
LOGIN :

Register | Disclaimer

   EN    FR    IT 

 










Legend :    VFR   Marginal VFR   IFR   Intensive IFR   Very Intensive IFR
Visi :
Ceiling :
>= 8 km
>= 3000ft
5 to 8 km
1000 to 3000 ft
1500m to 5 km
500 to 1000 ft
800 to 1500m
200 to 500 ft
< 800m
< 200 ft
Symbols :   Thunderstorms  Fog  Heavy snow  Heavy precipitations  Wind > 20 kt
SIGMETs :     Misc.  Thunderstorms  Icing  Turbulence  Mountain Waves  Volcanic Ashes






- Airport Elevation : 162 ft
- IATA code : BOD


LFBD - Bordeaux / Merignac

CURRENT METAR :
  • 140700Z AUTO 26018KT 5000 -RA BR BKN007 OVC012 13/12 Q1010 TEMPO RA BECMG 26020G35KT

EXPIRED METARs :
  • 140630Z AUTO 26018G29KT 4300 -RA BR BKN007 OVC011 13/13 Q1009 TEMPO RA
  • 140600Z AUTO 26018G29KT 6000 -DZ BKN009 OVC013 13/13 Q1009 TEMPO 3000 RA
  • 140530Z AUTO 26019KT 8000 DZ BKN009 OVC015 13/12 Q1009 TEMPO 3000 RA BECMG 26020G35KT
  • 140500Z AUTO 26020KT 9999 DZ BKN010 OVC014 13/12 Q1008 TEMPO 3000 RA BECMG 28020G35KT
  • 140430Z AUTO 27021G31KT 9999 BKN009 OVC013 14/12 Q1008 TEMPO 3000 RA

TAF TAF LFBD
Valid from the 14 at 06:00 until the 15 at 12:00 UTC


140500Z 1406/1512 26020G35KT 9999 OVC017 TX15/1412Z TN12/1424Z
PROB40 1406/1412 3000 RA OVC008
BECMG 1410/1412 25015G25KT
PROB40 1412/1420 RA
BECMG 1412/1414 23010KT
PROB40 1500/1508 3000 RA
ATIS : +33 5 57 92 81 04



MET'MAP, your aeronautical weather chart ! - Copyright ORBIFLY December 2007 - Disclaimer

ORBIFLY MET'MAP TEAM :

Programming & Development : Alexandra Zaïnal
Concept & original design : Baudouin d'Aumeries
Assistance for programming : Marc-Olivier Méhu
Technical & hardware support : Manuel Goepfert

Contact : metmap@orbifly.com




SOURCES & CREDITS :

   NOAA